Dover Foxcroft, Maine
Current Conditions -  °F | °C
As of 2:53 PM on Friday 24 Oct 2014 (Local Time) from KBGR Reporting Station
Haze Haze  
Wind Chill:   Ceiling: 1100
Heat Index:   Visibility: 4mi
Dew Point:   Wind: 14mph
Humidity: 90%   Direction: 350°N
Pressure: 29.64"   Gusts: NA
Location:  45.19°N, 69.23°W
Report Text: KBGR 241853Z 35012KT 4SM BR OVC011 08/07 A2964 RMK AO2 DZE49 SLP038 P0000 T00830067
Loading
Personal Weather Stations






























Interactive Weather Map
Tropical Storm Tracking
New forecast layout! Learn more

10-Day Weather Forecast

Advertisements
Track Severe Weather on mobile